Time;durP1;ratioP1;P1;durP2;ratioP2;P2;SDS_P1;SDS_P2;PMS_P1;PMS_P2;Temp;Humidity;BMP_temperature;BMP_pressure;BME280_temperature;BME280_humidity;BME280_pressure;Samples;Min_cycle;Max_cycle;Signal;HPM_P1;HPM_P2
2023/09/22 00:02:04;;;;;;;32.78;16.58;;;;;;;21.27;57.25;100960.16;5035193;28;20036;-42
2023/09/22 00:04:32;;;;;;;32.70;18.08;;;;;;;21.25;57.63;100956.06;5017656;28;20390;-44
2023/09/22 00:06:58;;;;;;;30.90;16.63;;;;;;;21.17;57.41;100953.91;5034960;28;20029;-46
2023/09/22 00:09:25;;;;;;;33.30;16.35;;;;;;;21.05;58.15;100955.00;5035329;28;20381;-45
2023/09/22 00:11:51;;;;;;;33.42;17.45;;;;;;;20.81;58.13;100949.28;5035229;28;20033;-43
2023/09/22 00:14:18;;;;;;;35.20;16.85;;;;;;;20.68;59.14;100941.66;5035536;28;20031;-45
2023/09/22 00:16:44;;;;;;;34.40;17.60;;;;;;;20.42;59.99;100948.09;5034933;28;20112;-42
2023/09/22 00:19:11;;;;;;;32.75;18.38;;;;;;;20.17;61.03;100962.47;5033805;28;20029;-42
2023/09/22 00:21:37;;;;;;;39.92;18.30;;;;;;;20.14;61.93;100982.00;5034598;28;20450;-46
2023/09/22 00:24:03;;;;;;;32.83;17.92;;;;;;;20.07;61.84;100979.53;5034764;28;20454;-43
2023/09/22 00:26:30;;;;;;;32.60;18.20;;;;;;;19.94;62.86;100977.31;5035032;28;20087;-43
2023/09/22 00:28:57;;;;;;;36.40;18.10;;;;;;;19.91;62.88;100983.28;5035060;28;20490;-43
2023/09/22 00:31:23;;;;;;;35.83;18.35;;;;;;;19.78;63.24;100982.66;5034728;28;20057;-44
2023/09/22 00:33:49;;;;;;;32.58;18.38;;;;;;;19.70;63.77;100975.00;5034529;28;20064;-45
2023/09/22 00:36:16;;;;;;;41.08;18.92;;;;;;;19.80;63.11;100970.72;5033984;28;20053;-44
2023/09/22 00:38:42;;;;;;;37.65;17.98;;;;;;;19.63;63.71;100969.00;5034517;28;20025;-45
2023/09/22 00:41:08;;;;;;;35.30;18.20;;;;;;;19.51;64.12;100973.78;5034742;28;20385;-45
2023/09/22 00:43:35;;;;;;;39.58;19.17;;;;;;;19.49;64.63;100976.78;5034502;28;20385;-42
2023/09/22 00:46:01;;;;;;;34.65;19.08;;;;;;;19.48;64.77;100983.25;5034267;28;20379;-42
2023/09/22 00:48:31;;;;;;;38.53;19.60;;;;;;;19.29;66.11;100992.09;5034148;28;20032;-42
2023/09/22 00:51:00;;;;;;;32.22;19.10;;;;;;;19.28;65.87;100980.44;5034166;28;20056;-41
2023/09/22 00:53:33;;;;;;;42.67;18.52;;;;;;;19.27;65.72;100981.50;5034065;28;20104;-43
2023/09/22 00:55:59;;;;;;;39.55;20.25;;;;;;;19.20;66.03;100983.59;5034488;28;20025;-47
2023/09/22 00:58:26;;;;;;;39.25;20.73;;;;;;;19.07;67.07;100982.16;5034134;28;20021;-45
2023/09/22 01:00:53;;;;;;;36.42;20.75;;;;;;;18.99;67.42;100991.59;5016337;28;20426;-42
2023/09/22 01:03:19;;;;;;;36.22;21.15;;;;;;;18.94;67.87;100980.72;5033480;28;20037;-41
2023/09/22 01:05:46;;;;;;;39.95;20.70;;;;;;;18.87;68.55;100990.13;5034051;28;20022;-43
2023/09/22 01:08:13;;;;;;;37.75;22.13;;;;;;;18.73;68.88;100990.53;5033951;28;20025;-42
2023/09/22 01:10:40;;;;;;;41.33;21.42;;;;;;;18.82;68.72;100992.78;5034148;28;20026;-42
2023/09/22 01:13:07;;;;;;;39.63;22.05;;;;;;;18.65;69.71;100990.13;5033933;28;20014;-42
2023/09/22 01:15:34;;;;;;;44.40;23.42;;;;;;;18.67;70.04;100985.31;5033800;28;20025;-42
2023/09/22 01:18:00;;;;;;;44.10;22.50;;;;;;;18.59;70.73;100986.56;5033723;28;20031;-47
2023/09/22 01:20:26;;;;;;;44.38;23.85;;;;;;;18.60;70.22;100987.38;5034056;28;20021;-44
2023/09/22 01:22:52;;;;;;;43.83;23.98;;;;;;;18.39;71.28;100989.88;5032823;28;20025;-42
2023/09/22 01:25:18;;;;;;;53.80;24.95;;;;;;;18.28;71.68;100992.75;5033749;28;20087;-42
2023/09/22 01:27:45;;;;;;;37.80;23.38;;;;;;;18.29;71.55;100994.38;5033564;28;20100;-42
2023/09/22 01:30:11;;;;;;;40.72;23.38;;;;;;;18.20;72.07;100999.41;5033674;28;20076;-43
2023/09/22 01:32:38;;;;;;;44.08;25.10;;;;;;;18.10;72.65;101008.25;5033985;28;20029;-46
2023/09/22 01:35:07;;;;;;;43.28;24.48;;;;;;;17.79;73.75;101004.31;5033955;28;20494;-46
2023/09/22 01:37:45;;;;;;;47.72;24.25;;;;;;;17.73;74.34;101004.50;5016155;28;20417;-48
2023/09/22 01:40:13;;;;;;;41.00;23.45;;;;;;;17.70;74.98;101005.75;5032131;28;20026;-46
2023/09/22 01:42:39;;;;;;;42.67;23.92;;;;;;;17.76;74.85;101001.28;5033281;28;20108;-45
2023/09/22 01:45:06;;;;;;;40.10;24.95;;;;;;;17.73;75.17;101009.91;5033443;28;20541;-47
2023/09/22 01:47:33;;;;;;;49.47;27.15;;;;;;;17.39;76.57;101002.63;5033341;28;20081;-47
2023/09/22 01:50:00;;;;;;;43.67;25.85;;;;;;;17.57;76.22;101006.94;5032971;28;20037;-46
2023/09/22 01:52:26;;;;;;;47.08;26.13;;;;;;;17.43;76.78;100997.50;5033081;28;20488;-46
2023/09/22 01:54:52;;;;;;;47.90;27.38;;;;;;;17.33;77.07;101011.72;5033177;28;20100;-44
2023/09/22 01:57:20;;;;;;;49.03;26.88;;;;;;;17.27;77.82;101001.06;5033114;28;20500;-45
2023/09/22 01:59:46;;;;;;;48.45;27.63;;;;;;;17.14;78.22;101005.72;5033076;28;20382;-44
2023/09/22 02:02:15;;;;;;;52.40;28.90;;;;;;;17.09;78.96;101005.63;5032884;28;20034;-45
2023/09/22 02:04:41;;;;;;;51.13;27.58;;;;;;;17.01;79.09;100999.84;5033088;28;20099;-44
2023/09/22 02:07:07;;;;;;;52.65;28.85;;;;;;;16.99;79.30;101007.34;5033263;28;20025;-45
2023/09/22 02:09:34;;;;;;;48.13;28.45;;;;;;;16.96;79.34;101005.97;5033705;28;20107;-45
2023/09/22 02:12:00;;;;;;;44.55;28.77;;;;;;;16.87;79.89;101002.00;5033059;28;20041;-44
2023/09/22 02:14:27;;;;;;;53.55;29.80;;;;;;;16.86;79.91;101011.19;5032631;28;20026;-45
2023/09/22 02:16:53;;;;;;;42.53;29.13;;;;;;;16.86;80.12;101013.91;5032777;28;20386;-45
2023/09/22 02:19:19;;;;;;;53.00;30.38;;;;;;;16.75;80.62;101010.19;5032920;28;20021;-44
2023/09/22 02:21:46;;;;;;;59.58;31.30;;;;;;;16.70;80.63;101004.66;5032645;28;20120;-43
2023/09/22 02:24:12;;;;;;;56.60;31.00;;;;;;;16.63;81.22;101012.91;5032579;28;20109;-44
2023/09/22 02:26:38;;;;;;;51.83;31.45;;;;;;;16.64;81.48;101006.44;5032678;28;20025;-45
2023/09/22 02:29:05;;;;;;;52.05;31.88;;;;;;;16.49;82.26;101006.19;5032730;28;20025;-44
2023/09/22 02:31:32;;;;;;;59.17;33.00;;;;;;;16.43;82.29;101017.91;5033018;28;20528;-44
2023/09/22 02:33:58;;;;;;;51.38;30.45;;;;;;;16.44;82.01;101006.06;5033068;28;20047;-44
2023/09/22 02:36:25;;;;;;;56.95;32.28;;;;;;;16.28;83.20;101023.84;5032722;28;20402;-45
2023/09/22 02:38:51;;;;;;;51.92;31.30;;;;;;;16.27;83.90;101021.41;5032426;28;20106;-42
2023/09/22 02:41:18;;;;;;;49.70;32.03;;;;;;;16.30;83.34;101029.00;5032487;28;20032;-43
2023/09/22 02:43:45;;;;;;;56.70;32.53;;;;;;;16.27;83.99;101016.00;5032513;28;20191;-44
2023/09/22 02:46:11;;;;;;;59.10;33.25;;;;;;;16.30;83.50;101023.63;5032472;28;20036;-43
2023/09/22 02:48:37;;;;;;;51.75;31.80;;;;;;;16.18;84.05;101020.13;5032637;28;20135;-41
2023/09/22 02:51:10;;;;;;;52.88;32.78;;;;;;;16.17;84.06;101018.50;5032485;28;20061;-42
2023/09/22 02:53:36;;;;;;;55.30;31.98;;;;;;;16.25;83.99;101018.91;5032710;28;20033;-41
2023/09/22 02:56:06;;;;;;;47.40;31.55;;;;;;;16.18;84.11;101023.66;5032509;28;20030;-41
2023/09/22 02:58:32;;;;;;;54.75;32.17;;;;;;;16.14;84.76;101038.69;5032527;28;20029;-41
2023/09/22 03:00:59;;;;;;;58.15;34.85;;;;;;;16.23;84.16;101033.75;5032474;28;20130;-41
2023/09/22 03:03:25;;;;;;;51.13;31.48;;;;;;;16.20;84.09;101045.00;5033348;28;20036;-41
2023/09/22 03:05:51;;;;;;;51.95;32.70;;;;;;;16.24;84.37;101046.19;5032521;28;20500;-41
2023/09/22 03:08:18;;;;;;;58.70;34.60;;;;;;;16.24;84.25;101049.69;5032304;28;20061;-41
2023/09/22 03:10:44;;;;;;;56.03;32.72;;;;;;;16.16;84.56;101062.72;5032447;28;20056;-41
2023/09/22 03:13:10;;;;;;;46.85;31.20;;;;;;;16.17;83.94;101061.69;5032364;28;20034;-43
2023/09/22 03:15:36;;;;;;;53.78;32.80;;;;;;;16.22;84.38;101064.50;5032482;28;20021;-41
2023/09/22 03:18:04;;;;;;;52.45;31.02;;;;;;;16.31;83.92;101057.66;5032267;28;20041;-42
2023/09/22 03:20:30;;;;;;;56.13;30.67;;;;;;;16.36;83.07;101060.47;5032242;28;20028;-42
2023/09/22 03:22:57;;;;;;;51.83;30.13;;;;;;;16.35;82.83;101066.94;5032563;28;20057;-42
2023/09/22 03:25:23;;;;;;;53.35;29.00;;;;;;;16.35;83.10;101067.75;5032291;28;20025;-42
2023/09/22 03:27:49;;;;;;;48.30;29.58;;;;;;;16.41;82.66;101071.38;5035633;28;20099;-42
2023/09/22 03:30:17;;;;;;;51.72;30.05;;;;;;;16.35;82.61;101080.44;5035820;28;20120;-40
2023/09/22 03:32:43;;;;;;;43.67;27.42;;;;;;;16.30;82.51;101093.84;5035857;28;20096;-41
2023/09/22 03:35:09;;;;;;;53.58;29.05;;;;;;;16.35;82.74;101083.97;5035948;28;20068;-41
2023/09/22 03:37:36;;;;;;;43.58;29.10;;;;;;;16.36;82.66;101099.09;5035618;28;20405;-40
2023/09/22 03:40:12;;;;;;;46.67;28.52;;;;;;;16.42;82.54;101091.94;5035542;28;20064;-41
2023/09/22 03:42:43;;;;;;;52.50;30.40;;;;;;;16.26;83.02;101098.06;5035613;28;20385;-44
2023/09/22 03:45:10;;;;;;;49.92;32.03;;;;;;;16.37;82.65;101116.94;5035698;28;20022;-41
2023/09/22 03:47:36;;;;;;;46.08;31.15;;;;;;;16.39;82.20;101118.63;5035343;28;20030;-41
2023/09/22 03:50:03;;;;;;;50.38;31.08;;;;;;;16.36;82.05;101122.59;5035491;28;20454;-41
2023/09/22 03:52:29;;;;;;;50.13;31.45;;;;;;;16.30;82.42;101127.06;5035342;28;20053;-40
2023/09/22 03:54:55;;;;;;;52.30;31.55;;;;;;;16.27;82.39;101134.84;5035461;28;20036;-41
2023/09/22 03:57:22;;;;;;;49.20;30.58;;;;;;;16.30;82.25;101137.06;5035261;28;20033;-40
2023/09/22 03:59:49;;;;;;;52.35;30.83;;;;;;;16.32;82.06;101140.34;5035196;28;20037;-40
2023/09/22 04:02:15;;;;;;;51.97;31.33;;;;;;;16.29;82.03;101147.03;5035159;28;20033;-41
2023/09/22 04:04:42;;;;;;;52.40;31.75;;;;;;;16.28;81.67;101144.59;5035203;28;20067;-40
2023/09/22 04:07:09;;;;;;;52.42;32.90;;;;;;;16.27;81.83;101148.34;5035032;28;20053;-42
2023/09/22 04:09:36;;;;;;;54.95;33.95;;;;;;;16.13;82.81;101149.63;5050376;28;20041;-41
2023/09/22 04:12:02;;;;;;;56.20;35.13;;;;;;;16.04;83.05;101149.97;5035197;28;20030;-40
2023/09/22 04:14:28;;;;;;;56.72;35.28;;;;;;;16.21;82.11;101155.53;5035393;28;20496;-40
2023/09/22 04:16:54;;;;;;;54.97;37.20;;;;;;;16.23;81.73;101153.41;5035292;28;20061;-40
2023/09/22 04:19:21;;;;;;;54.65;36.05;;;;;;;16.19;81.45;101154.09;5000226;28;20064;-40
2023/09/22 04:21:48;;;;;;;55.78;36.13;;;;;;;16.12;81.62;101150.69;5034805;28;20083;-40
2023/09/22 04:24:15;;;;;;;63.25;40.92;;;;;;;16.06;82.15;101149.75;5034910;28;20363;-40
2023/09/22 04:26:44;;;;;;;71.47;39.70;;;;;;;16.03;82.46;101150.22;5034974;28;20450;-40
2023/09/22 04:29:11;;;;;;;57.70;38.60;;;;;;;16.00;83.04;101148.81;5034755;28;20025;-40
2023/09/22 04:31:37;;;;;;;56.40;38.20;;;;;;;15.99;83.26;101151.72;5034856;28;20076;-40
2023/09/22 04:34:03;;;;;;;56.58;35.28;;;;;;;15.77;84.25;101149.63;5034704;28;20021;-42
2023/09/22 04:36:31;;;;;;;51.28;35.25;;;;;;;15.85;84.18;101151.16;5034714;28;20033;-40
2023/09/22 04:38:57;;;;;;;53.67;34.78;;;;;;;15.86;84.15;101155.50;5034833;28;20100;-40
2023/09/22 04:41:24;;;;;;;49.28;33.15;;;;;;;15.97;83.98;101165.47;5034713;28;20026;-40
2023/09/22 04:43:55;;;;;;;54.00;33.97;;;;;;;16.04;83.16;101166.19;5034621;28;20045;-40
2023/09/22 04:46:22;;;;;;;45.05;31.98;;;;;;;16.00;83.56;101166.91;5035201;28;20525;-39
2023/09/22 04:48:49;;;;;;;53.78;32.70;;;;;;;15.87;84.28;101169.81;5034372;28;20029;-40
2023/09/22 04:51:15;;;;;;;49.22;32.25;;;;;;;15.90;84.24;101175.56;5034410;28;20025;-40
2023/09/22 04:53:41;;;;;;;44.33;29.73;;;;;;;16.00;83.57;101186.63;5034337;28;20017;-40
2023/09/22 04:56:09;;;;;;;53.00;32.00;;;;;;;15.91;84.08;101185.31;5034200;28;20057;-40
2023/09/22 04:58:38;;;;;;;49.63;31.33;;;;;;;15.86;84.50;101193.28;5034226;28;20075;-40
2023/09/22 05:01:04;;;;;;;50.58;31.65;;;;;;;15.95;83.63;101183.78;5034037;28;20030;-40
2023/09/22 05:03:31;;;;;;;40.20;29.42;;;;;;;15.99;82.86;101179.59;5034091;28;20496;-40
2023/09/22 05:06:06;;;;;;;42.05;29.42;;;;;;;16.04;82.90;101182.38;5033963;28;20030;-40
2023/09/22 05:08:33;;;;;;;48.10;28.90;;;;;;;16.15;83.25;101185.31;5034217;28;20064;-40
2023/09/22 05:11:04;;;;;;;52.35;30.05;;;;;;;16.04;83.24;101185.06;5034217;28;20080;-40
2023/09/22 05:13:30;;;;;;;50.47;29.65;;;;;;;16.10;82.77;101181.47;5034427;28;20022;-41
2023/09/22 05:16:04;;;;;;;55.47;30.42;;;;;;;16.05;83.26;101183.22;5033830;28;20021;-40
2023/09/22 05:18:31;;;;;;;46.40;29.80;;;;;;;16.02;83.11;101186.38;5032740;28;20389;-41
2023/09/22 05:21:00;;;;;;;46.67;28.48;;;;;;;16.07;82.78;101187.31;5033910;28;20281;-42
2023/09/22 05:23:29;;;;;;;44.58;27.20;;;;;;;15.91;83.72;101185.31;5033973;28;20025;-41
2023/09/22 05:25:55;;;;;;;48.63;28.77;;;;;;;15.92;83.18;101197.75;5033637;28;20017;-41
2023/09/22 05:28:22;;;;;;;45.38;28.52;;;;;;;16.03;82.60;101196.94;5033677;28;20026;-41
2023/09/22 05:30:48;;;;;;;46.22;26.77;;;;;;;16.04;82.70;101190.47;5033746;28;20429;-41
2023/09/22 05:33:14;;;;;;;48.03;27.67;;;;;;;15.94;82.95;101192.97;5033564;28;20100;-41
2023/09/22 05:35:40;;;;;;;41.80;27.65;;;;;;;15.93;83.06;101202.09;5034045;28;20029;-40
2023/09/22 05:38:09;;;;;;;45.50;27.13;;;;;;;15.98;82.85;101186.00;5034264;28;20025;-40
2023/09/22 05:40:36;;;;;;;43.22;26.60;;;;;;;15.81;83.15;101187.75;5033065;28;20025;-42
2023/09/22 05:43:07;;;;;;;40.25;27.15;;;;;;;15.78;83.66;101180.97;5033181;28;20533;-46
2023/09/22 05:45:33;;;;;;;48.97;28.45;;;;;;;15.72;83.70;101191.88;5033294;28;20037;-46
2023/09/22 05:48:00;;;;;;;48.53;28.58;;;;;;;15.74;83.64;101181.66;5033110;28;20041;-46
2023/09/22 05:50:26;;;;;;;47.58;27.98;;;;;;;15.73;83.74;101191.63;5032547;28;20041;-45
2023/09/22 05:52:52;;;;;;;46.50;26.88;;;;;;;15.79;83.67;101177.19;5033356;28;20105;-47
2023/09/22 05:55:19;;;;;;;44.42;28.30;;;;;;;15.74;83.86;101187.03;5033204;28;20480;-46
2023/09/22 05:57:50;;;;;;;45.53;26.77;;;;;;;15.64;84.36;101189.47;5033411;28;20030;-45
2023/09/22 06:00:17;;;;;;;42.45;26.80;;;;;;;15.56;84.92;101191.44;5033101;28;20033;-45
2023/09/22 06:02:48;;;;;;;43.58;28.00;;;;;;;15.58;84.74;101200.09;5033169;28;20116;-45
2023/09/22 06:05:14;;;;;;;42.58;25.77;;;;;;;15.63;84.51;101191.34;5033178;28;20097;-45
2023/09/22 06:07:41;;;;;;;45.90;28.17;;;;;;;15.52;85.29;101190.25;5033052;28;20562;-46
2023/09/22 06:10:09;;;;;;;41.70;25.83;;;;;;;15.67;83.51;101197.13;5032699;28;20075;-47
2023/09/22 06:12:37;;;;;;;45.88;28.27;;;;;;;15.67;85.09;101202.53;5032285;28;20032;-46
2023/09/22 06:15:08;;;;;;;44.17;26.92;;;;;;;15.53;85.85;101202.66;5032816;28;20033;-45
2023/09/22 06:17:35;;;;;;;45.55;27.85;;;;;;;15.66;84.91;101208.97;5032818;28;20029;-46
2023/09/22 06:20:15;;;;;;;48.00;28.02;;;;;;;15.61;84.94;101206.13;5032716;28;20030;-46
2023/09/22 06:22:43;;;;;;;42.65;27.77;;;;;;;15.57;84.96;101200.34;5032713;28;20041;-47
2023/09/22 06:25:09;;;;;;;44.72;28.42;;;;;;;15.51;85.21;101201.28;5032676;28;20108;-45
2023/09/22 06:27:36;;;;;;;42.97;27.33;;;;;;;15.56;84.90;101201.41;5032640;28;20029;-46
2023/09/22 06:30:10;;;;;;;44.40;27.25;;;;;;;15.67;84.48;101206.03;5032629;28;20072;-46
2023/09/22 06:32:41;;;;;;;52.47;29.02;;;;;;;15.56;85.09;101198.72;5032520;28;20493;-46
2023/09/22 06:35:09;;;;;;;41.13;27.98;;;;;;;15.64;84.18;101213.75;5032370;28;20389;-46
2023/09/22 06:37:39;;;;;;;44.17;28.35;;;;;;;15.64;84.41;101214.59;5032580;28;20211;-46
2023/09/22 06:40:11;;;;;;;44.95;28.42;;;;;;;15.46;85.28;101214.63;5032731;28;20059;-46
2023/09/22 06:42:41;;;;;;;43.55;28.42;;;;;;;15.48;85.04;101212.50;5032993;28;20485;-45
2023/09/22 06:45:11;;;;;;;55.97;30.38;;;;;;;15.36;85.79;101207.06;5032452;28;20147;-45
2023/09/22 06:47:38;;;;;;;48.00;30.58;;;;;;;15.38;85.59;101205.00;5031516;28;20105;-46
2023/09/22 06:50:08;;;;;;;47.67;28.38;;;;;;;15.40;85.75;101197.47;5031960;28;20025;-45
2023/09/22 06:52:35;;;;;;;40.55;27.88;;;;;;;15.46;85.35;101199.25;5032354;28;20024;-46
2023/09/22 06:55:01;;;;;;;45.30;28.55;;;;;;;15.42;85.52;101199.94;5031973;28;20113;-46
2023/09/22 06:57:28;;;;;;;47.20;29.45;;;;;;;15.36;85.77;101195.47;5032356;28;20463;-45
2023/09/22 06:59:55;;;;;;;42.35;28.85;;;;;;;15.38;85.71;101196.03;5032233;28;20033;-46
2023/09/22 07:02:24;;;;;;;42.47;29.35;;;;;;;15.45;85.62;101194.09;5035152;28;20021;-45
2023/09/22 07:04:50;;;;;;;52.55;32.05;;;;;;;15.43;85.66;101201.56;5036311;28;20022;-46
2023/09/22 07:07:18;;;;;;;53.03;30.25;;;;;;;15.38;86.26;101221.16;5036205;28;20025;-45
2023/09/22 07:09:44;;;;;;;52.38;28.83;;;;;;;15.45;85.92;101227.28;5036224;28;20474;-45
2023/09/22 07:12:10;;;;;;;48.95;30.92;;;;;;;15.54;85.88;101225.06;5036736;28;20033;-46
2023/09/22 07:14:36;;;;;;;49.53;30.50;;;;;;;15.32;86.59;101224.75;5036243;28;20037;-45
2023/09/22 07:17:03;;;;;;;46.45;30.83;;;;;;;15.46;86.03;101223.53;5036072;28;20498;-46
2023/09/22 07:19:31;;;;;;;42.63;30.33;;;;;;;15.27;86.82;101224.63;5036328;28;20053;-46
2023/09/22 07:21:58;;;;;;;51.95;29.45;;;;;;;15.45;87.27;101221.91;5036437;28;20127;-46
2023/09/22 07:24:24;;;;;;;45.30;30.58;;;;;;;15.30;87.13;101222.28;5036015;28;20425;-46
2023/09/22 07:26:51;;;;;;;43.45;30.63;;;;;;;15.38;87.10;101225.72;5035807;28;20546;-46
2023/09/22 07:29:17;;;;;;;49.97;30.35;;;;;;;15.26;87.15;101222.97;5035770;28;20120;-46
2023/09/22 07:31:45;;;;;;;50.50;29.30;;;;;;;15.23;88.32;101220.75;5035897;28;20132;-46
2023/09/22 07:34:11;;;;;;;42.78;29.05;;;;;;;15.32;87.71;101222.91;5035978;28;20013;-46
2023/09/22 07:36:38;;;;;;;45.58;29.90;;;;;;;15.37;87.88;101222.19;5035836;28;20053;-45
2023/09/22 07:39:05;;;;;;;58.05;29.98;;;;;;;15.30;88.10;101229.56;5035696;28;20029;-45
2023/09/22 07:41:31;;;;;;;52.03;29.60;;;;;;;15.34;87.93;101229.94;5035418;28;20029;-45
2023/09/22 07:43:57;;;;;;;37.58;27.33;;;;;;;15.34;87.94;101225.38;5035420;28;20058;-46
2023/09/22 07:46:23;;;;;;;47.95;28.95;;;;;;;15.33;87.96;101229.13;5035656;28;20441;-45
2023/09/22 07:48:52;;;;;;;48.28;28.00;;;;;;;15.30;88.30;101227.69;5035611;28;20029;-46
2023/09/22 07:51:20;;;;;;;46.50;29.42;;;;;;;15.28;88.23;101228.97;5036129;28;20029;-45
2023/09/22 07:53:47;;;;;;;47.72;28.80;;;;;;;15.24;88.49;101233.16;5035377;28;20466;-45
2023/09/22 07:56:16;;;;;;;50.70;29.42;;;;;;;15.15;89.05;101229.94;5035385;28;20424;-45
2023/09/22 07:58:42;;;;;;;45.55;29.30;;;;;;;15.22;88.38;101228.00;5035331;28;20130;-46
2023/09/22 08:01:15;;;;;;;47.70;28.10;;;;;;;15.10;89.03;101224.41;5035254;28;20386;-46
2023/09/22 08:03:43;;;;;;;47.88;27.90;;;;;;;15.21;88.79;101222.81;5035151;28;20060;-46
2023/09/22 08:06:11;;;;;;;48.05;28.45;;;;;;;15.07;89.70;101224.88;5035228;28;20034;-45
2023/09/22 08:08:38;;;;;;;46.08;28.52;;;;;;;15.10;89.36;101224.41;5035492;28;20494;-46
2023/09/22 08:11:07;;;;;;;46.70;27.20;;;;;;;15.21;88.54;101220.13;5036119;28;20056;-45
2023/09/22 08:13:36;;;;;;;45.03;28.17;;;;;;;15.14;89.03;101233.69;5034534;28;20449;-46
2023/09/22 08:16:06;;;;;;;47.70;28.63;;;;;;;15.15;88.78;101231.81;5035102;28;20436;-45
2023/09/22 08:18:37;;;;;;;39.63;26.60;;;;;;;15.17;88.42;101233.25;5034912;28;20508;-44
2023/09/22 08:21:07;;;;;;;44.63;26.17;;;;;;;15.29;87.04;101236.00;5034972;28;20048;-44
2023/09/22 08:23:34;;;;;;;49.20;27.52;;;;;;;15.28;87.40;101237.88;5035701;28;20053;-45
2023/09/22 08:26:05;;;;;;;46.65;27.15;;;;;;;15.14;87.89;101235.56;5034862;28;20032;-44
2023/09/22 08:28:33;;;;;;;56.30;30.48;;;;;;;15.02;88.35;101230.13;5034733;28;20080;-45
2023/09/22 08:30:59;;;;;;;39.95;28.45;;;;;;;15.23;87.29;101231.53;5034795;28;20030;-45
2023/09/22 08:33:25;;;;;;;42.38;26.98;;;;;;;15.17;87.60;101244.03;5035082;28;20021;-45
2023/09/22 08:35:52;;;;;;;41.75;26.55;;;;;;;15.16;87.40;101231.63;5034461;28;20072;-45
2023/09/22 08:38:19;;;;;;;37.85;26.08;;;;;;;15.09;87.33;101240.81;5034639;28;20033;-45
2023/09/22 08:40:48;;;;;;;48.80;27.85;;;;;;;15.07;87.29;101234.84;5034479;28;20029;-45
2023/09/22 08:43:15;;;;;;;49.35;28.17;;;;;;;15.04;87.68;101239.63;5034630;28;20099;-45
2023/09/22 08:45:41;;;;;;;36.42;25.33;;;;;;;15.07;87.65;101235.66;5034457;28;20053;-44
2023/09/22 08:48:08;;;;;;;38.30;24.48;;;;;;;15.14;87.57;101235.56;5034355;28;20026;-44
2023/09/22 08:50:35;;;;;;;43.45;25.40;;;;;;;15.16;87.17;101238.88;5034406;28;20036;-46
2023/09/22 08:53:02;;;;;;;44.45;26.08;;;;;;;15.09;87.96;101241.66;5034388;28;20029;-46
2023/09/22 08:55:29;;;;;;;46.75;26.35;;;;;;;15.26;87.21;101244.53;5034363;28;20018;-46
2023/09/22 08:57:55;;;;;;;39.10;24.88;;;;;;;15.30;86.95;101241.16;5034113;28;20037;-46
2023/09/22 09:00:26;;;;;;;52.20;26.38;;;;;;;15.26;87.62;101239.16;5034487;28;20018;-46
2023/09/22 09:03:01;;;;;;;48.33;24.98;;;;;;;15.22;87.75;101237.97;5034165;28;20025;-46
2023/09/22 09:05:30;;;;;;;40.50;26.20;;;;;;;15.19;88.36;101243.81;5034430;28;20547;-46
2023/09/22 09:08:22;;;;;;;41.35;24.63;;;;;;;15.38;88.07;101248.13;5034053;28;20129;-46
2023/09/22 09:10:49;;;;;;;44.15;26.30;;;;;;;15.31;88.97;101239.28;5034096;28;20104;-45
2023/09/22 09:13:17;;;;;;;46.72;26.30;;;;;;;15.19;89.48;101246.50;5033923;28;20025;-46
2023/09/22 09:15:55;;;;;;;41.17;24.98;;;;;;;15.21;88.57;101245.25;5033873;28;20102;-46
2023/09/22 09:18:23;;;;;;;41.10;23.50;;;;;;;15.30;88.87;101243.03;5033841;28;20021;-45
2023/09/22 09:21:09;;;;;;;41.00;24.42;;;;;;;15.32;88.63;101238.25;5034037;28;20033;-46
2023/09/22 09:23:36;;;;;;;54.13;26.17;;;;;;;15.15;89.23;101234.53;5033273;28;20389;-46
2023/09/22 09:26:02;;;;;;;41.30;24.30;;;;;;;15.25;88.65;101242.91;5033679;28;20030;-46
2023/09/22 09:28:29;;;;;;;42.50;25.10;;;;;;;15.32;88.81;101246.31;5033795;28;20478;-45
2023/09/22 09:30:58;;;;;;;49.45;24.98;;;;;;;15.42;88.12;101246.63;5033502;28;20548;-46
2023/09/22 09:33:34;;;;;;;52.28;25.92;;;;;;;15.42;88.29;101249.31;5033485;28;20474;-45
2023/09/22 09:36:13;;;;;;;42.63;24.98;;;;;;;15.39;88.27;101263.28;5033908;28;20053;-45
2023/09/22 09:38:42;;;;;;;44.75;26.27;;;;;;;15.40;88.66;101256.81;5033646;28;20024;-46
2023/09/22 09:41:10;;;;;;;40.95;24.83;;;;;;;15.41;88.74;101253.06;5033402;28;20026;-44
2023/09/22 09:43:44;;;;;;;42.38;25.98;;;;;;;15.37;88.90;101251.88;5033319;28;20025;-44
2023/09/22 09:46:14;;;;;;;50.80;25.55;;;;;;;15.41;89.02;101253.06;5033768;28;20029;-44
2023/09/22 09:48:42;;;;;;;40.50;23.38;;;;;;;15.47;88.61;101249.44;5033592;28;20057;-44
2023/09/22 09:51:14;;;;;;;49.38;24.42;;;;;;;15.59;87.83;101258.41;5033575;28;20028;-44
2023/09/22 09:53:44;;;;;;;39.22;24.02;;;;;;;15.74;86.97;101252.63;5033412;28;20021;-44
2023/09/22 09:56:15;;;;;;;45.45;25.58;;;;;;;15.70;87.60;101246.03;5033441;28;20025;-44
2023/09/22 09:58:42;;;;;;;41.92;24.92;;;;;;;15.55;88.42;101259.94;5033061;28;20363;-44
2023/09/22 10:01:09;;;;;;;45.58;25.95;;;;;;;15.66;87.65;101252.97;5032870;28;20026;-44
2023/09/22 10:03:39;;;;;;;44.05;25.55;;;;;;;15.59;88.20;101252.19;5033095;28;20029;-44
2023/09/22 10:06:09;;;;;;;41.92;24.88;;;;;;;15.51;88.30;101250.66;5032938;28;20024;-44
2023/09/22 10:08:37;;;;;;;51.47;25.80;;;;;;;15.56;88.01;101255.38;5032786;28;20025;-44
2023/09/22 10:11:08;;;;;;;42.28;24.33;;;;;;;15.54;87.43;101252.06;5032872;28;20060;-44
2023/09/22 10:13:38;;;;;;;50.22;25.27;;;;;;;15.73;86.88;101250.19;5032921;28;20092;-44
2023/09/22 10:16:06;;;;;;;42.67;24.65;;;;;;;15.74;86.48;101252.63;5032955;28;20084;-44
2023/09/22 10:18:56;;;;;;;38.70;23.80;;;;;;;15.64;86.58;101251.53;5033128;28;20026;-45
2023/09/22 10:21:39;;;;;;;44.33;25.33;;;;;;;15.66;86.64;101244.88;5032900;28;20044;-45
2023/09/22 10:24:15;;;;;;;38.50;23.38;;;;;;;15.70;86.33;101246.03;5032917;28;20121;-44
2023/09/22 10:26:56;;;;;;;48.53;26.88;;;;;;;15.72;85.99;101249.34;5032750;28;20033;-44
2023/09/22 10:29:52;;;;;;;39.45;24.63;;;;;;;15.73;85.81;101253.69;5032748;28;20512;-44
2023/09/22 10:32:18;;;;;;;37.30;24.75;;;;;;;15.72;85.97;101253.94;5032772;28;20474;-44
2023/09/22 10:34:56;;;;;;;40.70;25.27;;;;;;;15.78;86.06;101255.72;5032868;28;20033;-45
2023/09/22 10:37:27;;;;;;;44.58;24.77;;;;;;;15.71;85.81;101250.41;5036807;28;20073;-45
2023/09/22 10:40:09;;;;;;;44.33;25.08;;;;;;;15.77;85.19;101252.19;5036843;28;20482;-45
2023/09/22 10:42:43;;;;;;;39.85;24.77;;;;;;;15.92;84.66;101249.03;5036831;28;20040;-45
2023/09/22 10:45:10;;;;;;;41.75;25.75;;;;;;;16.04;83.81;101252.59;5036764;28;20035;-44
2023/09/22 10:47:47;;;;;;;42.10;24.65;;;;;;;15.82;84.51;101248.78;5037541;28;20064;-45
2023/09/22 10:50:26;;;;;;;40.72;26.92;;;;;;;15.85;84.26;101248.31;5036626;28;20026;-44
2023/09/22 10:53:06;;;;;;;39.00;24.83;;;;;;;15.95;84.17;101240.50;5036705;28;20478;-45
2023/09/22 10:55:34;;;;;;;38.42;26.73;;;;;;;15.90;84.29;101245.75;5036603;28;20544;-44
2023/09/22 10:58:06;;;;;;;46.10;26.95;;;;;;;15.97;84.22;101246.47;5036556;28;20083;-44
2023/09/22 11:00:37;;;;;;;41.53;24.92;;;;;;;16.08;83.96;101245.66;5036259;28;20108;-44
2023/09/22 11:03:14;;;;;;;46.58;26.33;;;;;;;16.08;83.82;101252.94;5035516;28;20464;-44
2023/09/22 11:05:46;;;;;;;45.03;25.83;;;;;;;16.14;84.23;101251.19;5036179;28;20029;-44
2023/09/22 11:08:14;;;;;;;41.97;26.17;;;;;;;15.98;84.71;101253.50;5036616;28;20355;-44
2023/09/22 11:10:51;;;;;;;44.22;28.27;;;;;;;16.00;85.01;101256.00;5036364;28;20033;-44
2023/09/22 11:13:18;;;;;;;43.53;26.80;;;;;;;15.83;85.84;101251.25;5035871;28;20477;-45
2023/09/22 11:16:01;;;;;;;43.75;28.00;;;;;;;15.95;85.59;101251.28;5035494;28;20535;-45